createdAt,value
2023-03-19T00:00:46.722Z,92.06
2023-03-19T00:03:13.772Z,92.05
2023-03-19T00:05:40.785Z,91.71
2023-03-19T00:08:07.848Z,91.72
2023-03-19T00:10:39.951Z,92.03
2023-03-19T00:13:07.201Z,92.53
2023-03-19T00:15:34.490Z,93.90
2023-03-19T00:18:01.761Z,94.29
2023-03-19T00:20:28.723Z,95.02
2023-03-19T00:22:56.195Z,95.21
2023-03-19T00:25:23.754Z,96.95
2023-03-19T00:27:51.120Z,98.19
2023-03-19T00:30:18.330Z,97.76
2023-03-19T00:32:48.928Z,98.23
2023-03-19T00:35:16.281Z,99.10
2023-03-19T00:37:43.402Z,98.80
2023-03-19T00:40:11.875Z,98.69
2023-03-19T00:42:38.923Z,98.32
2023-03-19T00:45:06.814Z,97.43
2023-03-19T00:47:33.880Z,96.81
2023-03-19T00:50:00.995Z,96.94
2023-03-19T00:52:28.020Z,96.52
2023-03-19T00:54:55.009Z,96.96
2023-03-19T00:57:22.353Z,96.83
2023-03-19T00:59:49.561Z,96.46
2023-03-19T01:02:17.305Z,96.28
2023-03-19T01:04:44.716Z,96.58
2023-03-19T01:07:12.548Z,96.41
2023-03-19T01:09:39.700Z,95.83
2023-03-19T01:12:08.218Z,95.93
2023-03-19T01:14:35.393Z,96.66
2023-03-19T01:17:02.498Z,96.79
2023-03-19T01:19:30.534Z,97.44
2023-03-19T01:21:58.230Z,97.44
2023-03-19T01:24:29.062Z,97.96
2023-03-19T01:26:56.013Z,98.13
2023-03-19T01:29:23.006Z,98.51
2023-03-19T01:31:49.996Z,99.12
2023-03-19T01:34:17.009Z,99.65
2023-03-19T01:36:44.003Z,99.81
2023-03-19T01:39:11.815Z,100.00
2023-03-19T01:41:38.795Z,100.00
2023-03-19T01:44:32.578Z,100.00
2023-03-19T01:47:06.697Z,100.00
2023-03-19T01:49:34.792Z,100.00
2023-03-19T01:52:05.051Z,100.00
2023-03-19T01:54:33.906Z,100.00
2023-03-19T01:57:09.195Z,100.00
2023-03-19T01:59:47.656Z,100.00
2023-03-19T02:02:31.911Z,100.00
2023-03-19T02:05:03.748Z,100.00
2023-03-19T02:07:34.348Z,100.00
2023-03-19T02:10:07.310Z,100.00
2023-03-19T02:12:35.361Z,99.66
2023-03-19T02:15:02.396Z,99.03
2023-03-19T02:17:29.775Z,98.71
2023-03-19T02:20:32.860Z,98.87
2023-03-19T02:23:08.725Z,98.38
2023-03-19T02:25:46.512Z,98.26
2023-03-19T02:28:17.555Z,98.03
2023-03-19T02:30:45.905Z,97.89
2023-03-19T02:33:18.934Z,98.19
2023-03-19T02:35:49.523Z,99.00
2023-03-19T02:38:16.876Z,99.07
2023-03-19T02:41:01.748Z,99.23
2023-03-19T02:43:29.775Z,99.00
2023-03-19T02:45:57.014Z,99.00
2023-03-19T02:48:25.121Z,98.69
2023-03-19T02:50:52.261Z,98.07
2023-03-19T02:53:19.528Z,98.19
2023-03-19T02:55:47.133Z,97.89
2023-03-19T02:58:14.538Z,97.66
2023-03-19T03:00:42.394Z,97.42
2023-03-19T03:03:09.674Z,96.63
2023-03-19T03:05:36.786Z,96.43
2023-03-19T03:08:04.805Z,96.11
2023-03-19T03:10:33.611Z,95.93
2023-03-19T03:13:01.686Z,95.47
2023-03-19T03:15:28.774Z,95.48
2023-03-19T03:17:56.820Z,94.75
2023-03-19T03:20:24.840Z,95.06
2023-03-19T03:22:52.108Z,95.50
2023-03-19T03:25:19.231Z,95.85
2023-03-19T03:27:46.307Z,96.06
2023-03-19T03:30:13.981Z,96.60
2023-03-19T03:32:41.458Z,97.17
2023-03-19T03:35:09.508Z,96.97
2023-03-19T03:37:38.065Z,97.31
2023-03-19T03:40:08.553Z,97.23
2023-03-19T03:42:37.487Z,97.73
2023-03-19T03:45:05.447Z,97.71
2023-03-19T03:47:32.424Z,97.60
2023-03-19T03:49:59.474Z,97.66
2023-03-19T03:52:31.269Z,97.61
2023-03-19T03:54:58.706Z,97.85
2023-03-19T03:57:26.676Z,97.25
2023-03-19T03:59:54.504Z,97.04
2023-03-19T04:02:21.789Z,97.48
2023-03-19T04:04:48.952Z,97.80
2023-03-19T04:07:16.056Z,97.67
2023-03-19T04:09:43.379Z,97.53
2023-03-19T04:12:11.192Z,97.49
2023-03-19T04:14:38.380Z,97.77
2023-03-19T04:17:05.599Z,98.25
2023-03-19T04:19:32.822Z,97.86
2023-03-19T04:21:59.884Z,97.96
2023-03-19T04:24:26.960Z,98.31
2023-03-19T04:26:53.910Z,98.82
2023-03-19T04:29:21.221Z,98.92
2023-03-19T04:31:48.265Z,99.08
2023-03-19T04:34:15.236Z,99.10
2023-03-19T04:36:42.500Z,98.90
2023-03-19T04:39:10.062Z,99.16
2023-03-19T04:41:37.619Z,98.85
2023-03-19T04:44:04.715Z,99.01
2023-03-19T04:46:31.784Z,98.40
2023-03-19T04:48:59.940Z,97.81
2023-03-19T04:51:27.483Z,97.91
2023-03-19T04:53:54.992Z,98.24
2023-03-19T04:56:22.033Z,98.46
2023-03-19T04:58:49.094Z,98.06
2023-03-19T05:01:16.192Z,98.40
2023-03-19T05:03:43.228Z,97.88
2023-03-19T05:06:10.256Z,97.45
2023-03-19T05:08:37.464Z,97.30
2023-03-19T05:11:04.899Z,97.42
2023-03-19T05:13:32.004Z,97.90
2023-03-19T05:15:59.540Z,98.77
2023-03-19T05:18:27.444Z,99.12
2023-03-19T05:20:55.449Z,99.71
2023-03-19T05:23:23.193Z,100.00
2023-03-19T05:25:50.792Z,100.00
2023-03-19T05:28:17.901Z,100.00
2023-03-19T05:30:44.937Z,99.94
2023-03-19T05:33:12.855Z,99.93
2023-03-19T05:35:40.652Z,99.75
2023-03-19T05:38:08.235Z,99.84
2023-03-19T05:40:36.182Z,100.00
2023-03-19T05:43:03.547Z,100.00
2023-03-19T05:45:30.862Z,100.00
2023-03-19T05:47:57.901Z,100.00
2023-03-19T05:50:25.007Z,100.00
2023-03-19T05:52:51.991Z,100.00
2023-03-19T05:55:19.015Z,100.00
2023-03-19T05:57:46.334Z,100.00
2023-03-19T06:00:16.045Z,100.00
2023-03-19T06:02:44.248Z,100.00
2023-03-19T06:05:12.184Z,100.00
2023-03-19T06:07:39.209Z,100.00
2023-03-19T06:10:07.064Z,100.00
2023-03-19T06:12:34.102Z,100.00
2023-03-19T06:15:01.354Z,100.00
2023-03-19T06:17:28.361Z,100.00
2023-03-19T06:19:55.427Z,100.00
2023-03-19T06:22:22.840Z,100.00
2023-03-19T06:24:49.901Z,100.00
2023-03-19T06:27:16.928Z,100.00
2023-03-19T06:29:43.948Z,100.00
2023-03-19T06:32:11.104Z,100.00
2023-03-19T06:34:38.180Z,100.00
2023-03-19T06:37:05.255Z,100.00
2023-03-19T06:39:32.709Z,100.00
2023-03-19T06:41:59.990Z,100.00
2023-03-19T06:44:27.477Z,100.00
2023-03-19T06:46:54.494Z,100.00
2023-03-19T06:49:22.023Z,100.00
2023-03-19T06:51:49.539Z,100.00
2023-03-19T06:54:16.582Z,100.00
2023-03-19T06:56:43.997Z,100.00
2023-03-19T06:59:13.216Z,100.00
2023-03-19T07:01:43.274Z,100.00
2023-03-19T07:04:11.327Z,100.00
2023-03-19T07:06:38.621Z,100.00
2023-03-19T07:09:05.782Z,100.00
2023-03-19T07:11:35.734Z,100.00
2023-03-19T07:14:03.686Z,100.00
2023-03-19T07:16:30.912Z,100.00
2023-03-19T07:18:57.847Z,100.00
2023-03-19T07:21:25.043Z,100.00
2023-03-19T07:23:52.065Z,100.00
2023-03-19T07:26:19.309Z,100.00
2023-03-19T07:28:46.288Z,100.00
2023-03-19T07:31:13.555Z,100.00
2023-03-19T07:33:40.649Z,100.00
2023-03-19T07:36:08.388Z,100.00
2023-03-19T07:38:35.549Z,100.00
2023-03-19T07:41:03.129Z,100.00
2023-03-19T07:43:31.380Z,100.00
2023-03-19T07:45:59.827Z,99.52
2023-03-19T07:48:27.539Z,99.26
2023-03-19T07:50:55.476Z,98.52
2023-03-19T07:53:23.163Z,98.12
2023-03-19T07:55:50.750Z,98.04
2023-03-19T07:58:18.477Z,98.39
2023-03-19T08:00:46.232Z,97.82
2023-03-19T08:03:14.520Z,96.68
2023-03-19T08:05:42.078Z,95.93
2023-03-19T08:08:09.755Z,96.16
2023-03-19T08:10:38.385Z,96.30
2023-03-19T08:13:06.012Z,96.45
2023-03-19T08:15:33.546Z,96.08
2023-03-19T08:18:03.471Z,96.13
2023-03-19T08:20:30.916Z,95.36
2023-03-19T08:22:59.298Z,94.87
2023-03-19T08:25:27.080Z,94.57
2023-03-19T08:27:54.521Z,93.90
2023-03-19T08:30:21.560Z,93.12
2023-03-19T08:32:49.385Z,90.67
2023-03-19T08:35:19.097Z,88.60
2023-03-19T08:37:46.319Z,86.89
2023-03-19T08:40:14.296Z,86.24
2023-03-19T08:42:44.969Z,85.78
2023-03-19T08:45:15.114Z,85.24
2023-03-19T08:47:43.499Z,84.17
2023-03-19T08:50:12.033Z,83.84
2023-03-19T08:52:41.649Z,84.37
2023-03-19T08:55:09.726Z,82.31
2023-03-19T08:57:37.736Z,81.59
2023-03-19T09:00:08.382Z,81.02
2023-03-19T09:02:36.098Z,80.67
2023-03-19T09:05:03.569Z,80.79
2023-03-19T09:07:30.636Z,81.24
2023-03-19T09:10:02.166Z,79.57
2023-03-19T09:12:29.161Z,77.22
2023-03-19T09:14:56.228Z,76.21
2023-03-19T09:17:23.207Z,74.09
2023-03-19T09:19:50.873Z,74.05
2023-03-19T09:22:17.881Z,73.48
2023-03-19T09:24:44.867Z,72.02
2023-03-19T09:27:12.036Z,71.40
2023-03-19T09:29:39.019Z,70.74
2023-03-19T09:32:06.455Z,69.11
2023-03-19T09:34:34.020Z,68.27
2023-03-19T09:37:01.554Z,68.20
2023-03-19T09:39:29.052Z,68.88
2023-03-19T09:42:55.556Z,68.41
2023-03-19T09:45:23.706Z,66.47
2023-03-19T09:47:57.149Z,66.14
2023-03-19T09:50:28.857Z,65.34
2023-03-19T09:53:17.193Z,64.02
2023-03-19T09:55:50.493Z,63.07
2023-03-19T09:58:21.288Z,63.29
2023-03-19T10:00:51.374Z,62.43
2023-03-19T10:04:26.910Z,59.79
2023-03-19T10:07:10.783Z,60.40
2023-03-19T10:09:46.219Z,60.88
2023-03-19T10:12:25.129Z,61.38
2023-03-19T10:15:21.504Z,60.27
2023-03-19T10:18:17.991Z,60.40
2023-03-19T10:21:14.354Z,59.39
2023-03-19T10:24:04.668Z,59.21
2023-03-19T10:26:37.461Z,58.78
2023-03-19T10:29:15.698Z,59.61
2023-03-19T10:32:38.181Z,59.00
2023-03-19T10:35:39.955Z,58.85
2023-03-19T10:38:26.998Z,58.92
2023-03-19T10:41:15.425Z,57.83
2023-03-19T10:43:48.148Z,58.79
2023-03-19T10:46:15.840Z,58.66
2023-03-19T10:48:47.030Z,58.70
2023-03-19T10:51:21.423Z,58.13
2023-03-19T10:53:48.465Z,58.72
2023-03-19T10:56:21.020Z,58.67
2023-03-19T10:59:03.928Z,58.38
2023-03-19T11:01:40.707Z,58.71
2023-03-19T11:04:26.412Z,59.20
2023-03-19T11:07:03.839Z,59.05
2023-03-19T11:09:34.886Z,57.94
2023-03-19T11:12:27.679Z,57.85
2023-03-19T11:14:58.218Z,58.62
2023-03-19T11:17:50.075Z,58.05
2023-03-19T11:20:35.541Z,59.34
2023-03-19T11:23:09.347Z,59.19
2023-03-19T11:25:42.966Z,58.25
2023-03-19T11:28:21.087Z,59.36
2023-03-19T11:30:57.253Z,59.64
2023-03-19T11:34:28.687Z,59.13
2023-03-19T11:37:28.652Z,59.15
2023-03-19T11:40:32.209Z,59.56
2023-03-19T11:43:47.141Z,59.72
2023-03-19T11:46:22.395Z,59.72
2023-03-19T11:49:27.455Z,60.90
2023-03-19T11:52:05.637Z,61.27
2023-03-19T11:55:11.716Z,61.77
2023-03-19T11:58:34.279Z,61.70
2023-03-19T12:01:39.279Z,61.67
2023-03-19T12:04:43.270Z,63.02
2023-03-19T12:07:13.209Z,63.63
2023-03-19T12:10:01.400Z,63.60
2023-03-19T12:13:28.774Z,64.20
2023-03-19T12:16:23.051Z,63.93
2023-03-19T12:19:27.090Z,64.08
2023-03-19T12:22:07.138Z,64.04
2023-03-19T12:25:11.779Z,63.52
2023-03-19T12:27:57.375Z,64.72
2023-03-19T12:30:49.019Z,65.41
2023-03-19T12:34:14.922Z,66.60
2023-03-19T12:36:55.129Z,66.92
2023-03-19T12:39:32.052Z,67.39
2023-03-19T12:42:00.922Z,67.98
2023-03-19T12:44:47.314Z,67.51
2023-03-19T12:47:23.041Z,68.28
2023-03-19T12:50:10.438Z,71.36
2023-03-19T12:52:58.851Z,73.93
2023-03-19T12:55:59.023Z,75.84
2023-03-19T12:58:40.728Z,76.92
2023-03-19T13:01:30.415Z,78.15
2023-03-19T13:04:18.752Z,79.91
2023-03-19T13:07:18.585Z,81.40
2023-03-19T13:09:56.803Z,82.19
2023-03-19T13:12:29.781Z,82.25
2023-03-19T13:15:08.801Z,83.54
2023-03-19T13:18:03.613Z,82.71
2023-03-19T13:21:14.109Z,82.71
2023-03-19T13:23:44.182Z,82.20
2023-03-19T13:26:13.400Z,81.65
2023-03-19T13:29:09.862Z,80.89
2023-03-19T13:31:38.508Z,81.96
2023-03-19T13:34:36.651Z,84.18
2023-03-19T13:37:20.855Z,86.57
2023-03-19T13:39:52.100Z,87.97
2023-03-19T13:42:42.230Z,89.36
2023-03-19T13:45:38.660Z,91.16
2023-03-19T13:48:47.728Z,91.44
2023-03-19T13:51:29.714Z,92.15
2023-03-19T13:54:23.782Z,91.67
2023-03-19T13:57:18.475Z,90.84
2023-03-19T13:59:50.006Z,89.81
2023-03-19T14:02:22.997Z,88.95
2023-03-19T14:05:32.942Z,86.51
2023-03-19T14:07:59.953Z,84.92
2023-03-19T14:10:30.318Z,83.28
2023-03-19T14:13:09.012Z,81.58
2023-03-19T14:15:41.798Z,81.79
2023-03-19T14:18:16.659Z,80.60
2023-03-19T14:20:57.480Z,80.67
2023-03-19T14:23:39.719Z,79.52
2023-03-19T14:26:22.991Z,78.55
2023-03-19T14:29:07.434Z,76.04
2023-03-19T14:32:01.713Z,75.58
2023-03-19T14:34:43.029Z,74.81
2023-03-19T14:37:28.799Z,74.10
2023-03-19T14:40:20.583Z,72.55
2023-03-19T14:42:50.500Z,72.30
2023-03-19T14:46:00.554Z,73.66
2023-03-19T14:49:10.040Z,72.06
2023-03-19T14:51:52.056Z,70.48
2023-03-19T14:55:01.192Z,71.63
2023-03-19T14:57:36.604Z,73.27
2023-03-19T15:00:19.739Z,74.10
2023-03-19T15:02:53.248Z,73.35
2023-03-19T15:05:29.398Z,73.40
2023-03-19T15:08:11.227Z,73.04
2023-03-19T15:11:12.088Z,71.89
2023-03-19T15:14:24.907Z,73.28
2023-03-19T15:17:07.589Z,72.71
2023-03-19T15:19:36.760Z,73.12
2023-03-19T15:22:19.940Z,72.99
2023-03-19T15:24:49.027Z,73.40
2023-03-19T15:27:24.113Z,74.45
2023-03-19T15:30:06.989Z,73.00
2023-03-19T15:33:10.562Z,72.83
2023-03-19T15:35:38.367Z,73.39
2023-03-19T15:38:11.734Z,74.30
2023-03-19T15:40:41.274Z,75.34
2023-03-19T15:43:11.834Z,75.74
2023-03-19T15:45:41.555Z,76.17
2023-03-19T15:48:22.498Z,76.55
2023-03-19T15:50:56.994Z,76.40
2023-03-19T15:53:28.798Z,76.93
2023-03-19T15:55:59.881Z,76.59
2023-03-19T15:58:32.027Z,76.33
2023-03-19T16:01:01.150Z,76.34
2023-03-19T16:03:49.908Z,76.57
2023-03-19T16:06:31.993Z,77.26
2023-03-19T16:09:30.688Z,77.61
2023-03-19T16:11:58.101Z,77.65
2023-03-19T16:14:43.717Z,77.53
2023-03-19T16:17:17.219Z,77.29
2023-03-19T16:19:58.541Z,78.08
2023-03-19T16:22:34.873Z,78.55
2023-03-19T16:25:06.905Z,80.10
2023-03-19T16:27:41.145Z,80.22
2023-03-19T16:30:25.852Z,80.72
2023-03-19T16:33:03.899Z,80.02
2023-03-19T16:35:35.130Z,79.62
2023-03-19T16:38:25.230Z,79.01
2023-03-19T16:41:34.136Z,78.98
2023-03-19T16:44:17.589Z,80.17
2023-03-19T16:46:48.729Z,81.48
2023-03-19T16:49:16.188Z,81.98
2023-03-19T16:51:43.775Z,83.58
2023-03-19T16:54:17.453Z,85.10
2023-03-19T16:56:45.101Z,85.23
2023-03-19T16:59:28.039Z,85.04
2023-03-19T17:01:58.941Z,84.79
2023-03-19T17:04:29.296Z,84.66
2023-03-19T17:06:56.904Z,84.74
2023-03-19T17:09:24.302Z,84.35
2023-03-19T17:11:53.391Z,84.41
2023-03-19T17:14:22.587Z,84.78
2023-03-19T17:16:54.406Z,85.64
2023-03-19T17:19:34.941Z,86.06
2023-03-19T17:22:02.880Z,86.88
2023-03-19T17:24:35.377Z,87.30
2023-03-19T17:27:07.453Z,88.06
2023-03-19T17:29:36.144Z,88.69
2023-03-19T17:32:04.929Z,89.18
2023-03-19T17:34:36.011Z,90.38
2023-03-19T17:37:07.302Z,91.54
2023-03-19T17:39:37.666Z,92.67
2023-03-19T17:42:22.673Z,93.15
2023-03-19T17:44:49.907Z,93.79
2023-03-19T17:47:26.137Z,93.68
2023-03-19T17:49:56.594Z,93.49
2023-03-19T17:52:27.534Z,92.83
2023-03-19T17:54:55.441Z,93.18
2023-03-19T17:57:22.833Z,93.22
2023-03-19T17:59:52.662Z,93.45
2023-03-19T18:02:24.262Z,94.01
2023-03-19T18:04:57.059Z,94.72
2023-03-19T18:07:24.836Z,95.55
2023-03-19T18:09:52.044Z,96.47
2023-03-19T18:12:19.291Z,97.11
2023-03-19T18:14:46.854Z,98.14
2023-03-19T18:17:20.841Z,98.54
2023-03-19T18:19:54.750Z,99.55
2023-03-19T18:22:27.599Z,100.00
2023-03-19T18:25:08.575Z,100.00
2023-03-19T18:27:39.910Z,100.00
2023-03-19T18:30:41.932Z,100.00
2023-03-19T18:33:17.317Z,100.00
2023-03-19T18:35:47.289Z,100.00
2023-03-19T18:38:21.658Z,100.00
2023-03-19T18:40:51.506Z,100.00
2023-03-19T18:43:39.233Z,100.00
2023-03-19T18:46:11.044Z,100.00
2023-03-19T18:48:38.266Z,100.00
2023-03-19T18:51:05.656Z,100.00
2023-03-19T18:53:35.854Z,100.00
2023-03-19T18:56:07.800Z,100.00
2023-03-19T18:58:35.145Z,99.43
2023-03-19T19:01:04.541Z,98.21
2023-03-19T19:03:33.725Z,97.46
2023-03-19T19:06:00.885Z,97.13
2023-03-19T19:08:30.417Z,98.01
2023-03-19T19:11:50.272Z,97.75
2023-03-19T19:14:22.375Z,98.39
2023-03-19T19:16:50.389Z,99.09
2023-03-19T19:19:27.818Z,100.00
2023-03-19T19:21:55.184Z,100.00
2023-03-19T19:24:22.460Z,100.00
2023-03-19T19:26:55.731Z,100.00
2023-03-19T19:29:28.468Z,100.00
2023-03-19T19:32:00.254Z,100.00
2023-03-19T19:34:27.837Z,100.00
2023-03-19T19:36:58.685Z,100.00
2023-03-19T19:39:26.436Z,100.00
2023-03-19T19:41:55.963Z,100.00
2023-03-19T19:44:23.428Z,100.00
2023-03-19T19:46:53.438Z,100.00
2023-03-19T19:49:21.882Z,100.00
2023-03-19T19:51:48.971Z,100.00
2023-03-19T19:54:18.595Z,100.00
2023-03-19T19:56:45.999Z,100.00
2023-03-19T19:59:23.019Z,100.00
2023-03-19T20:01:50.897Z,100.00
2023-03-19T20:04:18.417Z,100.00
2023-03-19T20:06:51.441Z,100.00
2023-03-19T20:09:20.050Z,100.00
2023-03-19T20:11:47.919Z,100.00
2023-03-19T20:14:15.367Z,100.00
2023-03-19T20:16:42.589Z,100.00
2023-03-19T20:19:20.290Z,100.00
2023-03-19T20:21:53.604Z,100.00
2023-03-19T20:24:21.037Z,100.00
2023-03-19T20:26:56.846Z,100.00
2023-03-19T20:29:23.867Z,100.00
2023-03-19T20:31:51.002Z,100.00
2023-03-19T20:34:32.549Z,100.00
2023-03-19T20:37:05.347Z,100.00
2023-03-19T20:39:32.384Z,100.00
2023-03-19T20:41:59.482Z,100.00
2023-03-19T20:44:26.576Z,100.00
2023-03-19T20:46:53.779Z,100.00
2023-03-19T20:49:21.240Z,100.00
2023-03-19T20:51:48.350Z,100.00
2023-03-19T20:54:16.574Z,100.00
2023-03-19T20:56:45.902Z,100.00
2023-03-19T20:59:13.464Z,100.00
2023-03-19T21:01:42.947Z,100.00
2023-03-19T21:04:19.807Z,100.00
2023-03-19T21:06:53.375Z,100.00
2023-03-19T21:09:21.687Z,100.00
2023-03-19T21:11:49.264Z,100.00
2023-03-19T21:14:16.322Z,100.00
2023-03-19T21:16:43.778Z,100.00
2023-03-19T21:19:12.682Z,100.00
2023-03-19T21:21:40.094Z,100.00
2023-03-19T21:24:19.743Z,100.00
2023-03-19T21:26:47.345Z,100.00
2023-03-19T21:29:22.750Z,100.00
2023-03-19T21:31:50.258Z,100.00
2023-03-19T21:34:17.259Z,100.00
2023-03-19T21:36:44.238Z,100.00
2023-03-19T21:39:11.740Z,100.00
2023-03-19T21:41:38.747Z,100.00
2023-03-19T21:44:14.437Z,100.00
2023-03-19T21:46:41.514Z,100.00
2023-03-19T21:49:12.437Z,100.00
2023-03-19T21:51:39.588Z,100.00
2023-03-19T21:54:06.612Z,100.00
2023-03-19T21:56:40.828Z,100.00
2023-03-19T21:59:28.321Z,100.00
2023-03-19T22:01:56.399Z,100.00
2023-03-19T22:04:23.682Z,100.00
2023-03-19T22:06:50.749Z,100.00
2023-03-19T22:09:17.837Z,100.00
2023-03-19T22:11:46.110Z,100.00
2023-03-19T22:14:20.744Z,100.00
2023-03-19T22:16:52.721Z,100.00
2023-03-19T22:19:20.351Z,100.00
2023-03-19T22:21:48.162Z,100.00
2023-03-19T22:24:15.430Z,100.00
2023-03-19T22:26:43.588Z,100.00
2023-03-19T22:29:25.340Z,100.00
2023-03-19T22:31:54.842Z,100.00
2023-03-19T22:34:25.751Z,100.00
2023-03-19T22:36:52.894Z,100.00
2023-03-19T22:39:19.935Z,100.00
2023-03-19T22:42:19.020Z,100.00
2023-03-19T22:45:03.238Z,100.00
2023-03-19T22:47:55.150Z,100.00
2023-03-19T22:50:42.781Z,100.00
2023-03-19T22:53:54.495Z,100.00
2023-03-19T22:56:40.371Z,100.00
2023-03-19T22:59:19.891Z,100.00
2023-03-19T23:02:09.360Z,100.00
2023-03-19T23:04:58.191Z,100.00
2023-03-19T23:07:42.303Z,100.00
2023-03-19T23:10:18.938Z,100.00
2023-03-19T23:13:12.142Z,100.00
2023-03-19T23:16:01.043Z,100.00
2023-03-19T23:18:47.331Z,100.00
2023-03-19T23:21:30.259Z,100.00
2023-03-19T23:24:13.878Z,100.00
2023-03-19T23:26:59.730Z,100.00
2023-03-19T23:29:52.901Z,100.00
2023-03-19T23:32:20.768Z,100.00
2023-03-19T23:34:58.542Z,100.00
2023-03-19T23:37:26.449Z,100.00
2023-03-19T23:39:53.778Z,100.00
2023-03-19T23:42:31.976Z,100.00
2023-03-19T23:45:03.683Z,100.00
2023-03-19T23:47:31.124Z,100.00
2023-03-19T23:49:58.402Z,100.00
2023-03-19T23:52:25.456Z,100.00
2023-03-19T23:54:52.591Z,100.00
2023-03-19T23:57:26.921Z,100.00
2023-03-19T23:59:54.289Z,100.00
